sensor_id;sensor_type;location;lat;lon;timestamp;P1;durP1;ratioP1;P2;durP2;ratioP2
41643;SDS011;44236;48.098;11.582;2023-05-10T00:01:43;5.70;;;2.00;;
41643;SDS011;44236;48.098;11.582;2023-05-10T00:04:08;3.42;;;1.90;;
41643;SDS011;44236;48.098;11.582;2023-05-10T00:06:34;2.05;;;1.50;;
41643;SDS011;44236;48.098;11.582;2023-05-10T00:09:00;3.72;;;2.00;;
41643;SDS011;44236;48.098;11.582;2023-05-10T00:11:25;4.95;;;2.50;;
41643;SDS011;44236;48.098;11.582;2023-05-10T00:13:51;5.00;;;1.95;;
41643;SDS011;44236;48.098;11.582;2023-05-10T00:16:17;4.30;;;2.33;;
41643;SDS011;44236;48.098;11.582;2023-05-10T00:18:42;3.38;;;1.90;;
41643;SDS011;44236;48.098;11.582;2023-05-10T00:21:08;3.63;;;2.00;;
41643;SDS011;44236;48.098;11.582;2023-05-10T00:23:34;3.05;;;1.95;;
41643;SDS011;44236;48.098;11.582;2023-05-10T00:25:59;3.20;;;1.90;;
41643;SDS011;44236;48.098;11.582;2023-05-10T00:28:27;3.60;;;1.83;;
41643;SDS011;44236;48.098;11.582;2023-05-10T00:30:53;2.72;;;1.60;;
41643;SDS011;44236;48.098;11.582;2023-05-10T00:33:19;4.50;;;2.10;;
41643;SDS011;44236;48.098;11.582;2023-05-10T00:35:44;4.50;;;2.00;;
41643;SDS011;44236;48.098;11.582;2023-05-10T00:38:10;2.72;;;1.58;;
41643;SDS011;44236;48.098;11.582;2023-05-10T00:40:36;3.08;;;1.88;;
41643;SDS011;44236;48.098;11.582;2023-05-10T00:43:04;3.60;;;1.92;;
41643;SDS011;44236;48.098;11.582;2023-05-10T00:45:30;2.65;;;1.60;;
41643;SDS011;44236;48.098;11.582;2023-05-10T00:47:58;2.53;;;1.50;;
41643;SDS011;44236;48.098;11.582;2023-05-10T00:50:26;2.72;;;1.58;;
41643;SDS011;44236;48.098;11.582;2023-05-10T00:52:51;2.83;;;1.40;;
41643;SDS011;44236;48.098;11.582;2023-05-10T00:55:17;3.42;;;1.90;;
41643;SDS011;44236;48.098;11.582;2023-05-10T00:57:43;2.65;;;1.63;;
41643;SDS011;44236;48.098;11.582;2023-05-10T01:00:09;4.25;;;2.20;;
41643;SDS011;44236;48.098;11.582;2023-05-10T01:02:36;2.78;;;1.48;;
41643;SDS011;44236;48.098;11.582;2023-05-10T01:05:02;3.50;;;1.90;;
41643;SDS011;44236;48.098;11.582;2023-05-10T01:07:31;3.15;;;1.77;;
41643;SDS011;44236;48.098;11.582;2023-05-10T01:09:56;3.13;;;1.35;;
41643;SDS011;44236;48.098;11.582;2023-05-10T01:12:22;2.63;;;1.83;;
41643;SDS011;44236;48.098;11.582;2023-05-10T01:14:48;2.70;;;1.70;;
41643;SDS011;44236;48.098;11.582;2023-05-10T01:17:14;2.03;;;1.33;;
41643;SDS011;44236;48.098;11.582;2023-05-10T01:19:41;2.20;;;1.48;;
41643;SDS011;44236;48.098;11.582;2023-05-10T01:25:15;2.47;;;1.20;;
41643;SDS011;44236;48.098;11.582;2023-05-10T01:33:32;2.28;;;1.33;;
41643;SDS011;44236;48.098;11.582;2023-05-10T01:39:08;2.75;;;1.35;;
41643;SDS011;44236;48.098;11.582;2023-05-10T01:49:45;2.45;;;1.52;;
41643;SDS011;44236;48.098;11.582;2023-05-10T01:52:15;2.88;;;1.60;;
41643;SDS011;44236;48.098;11.582;2023-05-10T01:54:59;3.58;;;1.73;;
41643;SDS011;44236;48.098;11.582;2023-05-10T01:57:27;3.58;;;1.55;;
41643;SDS011;44236;48.098;11.582;2023-05-10T01:59:59;2.20;;;1.33;;
41643;SDS011;44236;48.098;11.582;2023-05-10T02:02:26;4.03;;;1.27;;
41643;SDS011;44236;48.098;11.582;2023-05-10T02:04:53;1.52;;;1.05;;
41643;SDS011;44236;48.098;11.582;2023-05-10T02:07:20;2.20;;;1.33;;
41643;SDS011;44236;48.098;11.582;2023-05-10T02:09:48;3.83;;;1.45;;
41643;SDS011;44236;48.098;11.582;2023-05-10T02:12:14;2.05;;;1.05;;
41643;SDS011;44236;48.098;11.582;2023-05-10T02:14:41;2.28;;;1.63;;
41643;SDS011;44236;48.098;11.582;2023-05-10T02:17:08;1.75;;;1.08;;
41643;SDS011;44236;48.098;11.582;2023-05-10T02:19:35;2.90;;;1.02;;
41643;SDS011;44236;48.098;11.582;2023-05-10T02:22:03;2.22;;;1.20;;
41643;SDS011;44236;48.098;11.582;2023-05-10T02:24:29;1.85;;;1.08;;
41643;SDS011;44236;48.098;11.582;2023-05-10T02:26:56;1.90;;;1.00;;
41643;SDS011;44236;48.098;11.582;2023-05-10T02:29:24;2.13;;;1.15;;
41643;SDS011;44236;48.098;11.582;2023-05-10T02:31:52;2.30;;;1.33;;
41643;SDS011;44236;48.098;11.582;2023-05-10T02:34:20;1.83;;;1.13;;
41643;SDS011;44236;48.098;11.582;2023-05-10T02:36:47;2.50;;;1.20;;
41643;SDS011;44236;48.098;11.582;2023-05-10T02:39:14;1.98;;;0.93;;
41643;SDS011;44236;48.098;11.582;2023-05-10T02:41:41;1.48;;;0.80;;
41643;SDS011;44236;48.098;11.582;2023-05-10T02:44:08;2.33;;;1.10;;
41643;SDS011;44236;48.098;11.582;2023-05-10T02:46:35;1.92;;;0.98;;
41643;SDS011;44236;48.098;11.582;2023-05-10T02:49:02;2.25;;;1.10;;
41643;SDS011;44236;48.098;11.582;2023-05-10T02:51:31;1.75;;;1.10;;
41643;SDS011;44236;48.098;11.582;2023-05-10T02:54:07;2.50;;;1.15;;
41643;SDS011;44236;48.098;11.582;2023-05-10T02:56:37;1.73;;;1.13;;
41643;SDS011;44236;48.098;11.582;2023-05-10T02:59:07;1.77;;;0.93;;
41643;SDS011;44236;48.098;11.582;2023-05-10T03:01:33;2.15;;;1.25;;
41643;SDS011;44236;48.098;11.582;2023-05-10T03:03:59;2.15;;;0.93;;
41643;SDS011;44236;48.098;11.582;2023-05-10T03:06:25;3.00;;;1.27;;
41643;SDS011;44236;48.098;11.582;2023-05-10T03:08:50;1.70;;;1.00;;
41643;SDS011;44236;48.098;11.582;2023-05-10T03:11:22;1.70;;;1.02;;
41643;SDS011;44236;48.098;11.582;2023-05-10T03:16:52;1.05;;;0.77;;
41643;SDS011;44236;48.098;11.582;2023-05-10T03:19:56;1.70;;;0.90;;
41643;SDS011;44236;48.098;11.582;2023-05-10T03:22:24;1.55;;;1.00;;
41643;SDS011;44236;48.098;11.582;2023-05-10T03:24:55;1.67;;;1.20;;
41643;SDS011;44236;48.098;11.582;2023-05-10T03:27:22;2.35;;;1.10;;
41643;SDS011;44236;48.098;11.582;2023-05-10T03:29:50;2.45;;;1.02;;
41643;SDS011;44236;48.098;11.582;2023-05-10T03:32:17;2.75;;;1.20;;
41643;SDS011;44236;48.098;11.582;2023-05-10T03:34:43;1.50;;;1.00;;
41643;SDS011;44236;48.098;11.582;2023-05-10T03:37:09;2.70;;;0.80;;
41643;SDS011;44236;48.098;11.582;2023-05-10T03:39:34;1.25;;;0.82;;
41643;SDS011;44236;48.098;11.582;2023-05-10T03:42:00;1.73;;;1.15;;
41643;SDS011;44236;48.098;11.582;2023-05-10T03:44:29;1.88;;;1.15;;
41643;SDS011;44236;48.098;11.582;2023-05-10T03:46:54;1.10;;;0.82;;
41643;SDS011;44236;48.098;11.582;2023-05-10T03:49:21;0.98;;;0.80;;
41643;SDS011;44236;48.098;11.582;2023-05-10T03:51:47;0.68;;;0.60;;
41643;SDS011;44236;48.098;11.582;2023-05-10T03:54:13;1.83;;;1.08;;
41643;SDS011;44236;48.098;11.582;2023-05-10T03:56:38;2.22;;;1.10;;
41643;SDS011;44236;48.098;11.582;2023-05-10T03:59:04;1.15;;;0.70;;
41643;SDS011;44236;48.098;11.582;2023-05-10T04:01:32;1.80;;;0.98;;
41643;SDS011;44236;48.098;11.582;2023-05-10T04:03:58;1.27;;;0.80;;
41643;SDS011;44236;48.098;11.582;2023-05-10T04:06:26;1.45;;;1.00;;
41643;SDS011;44236;48.098;11.582;2023-05-10T04:08:52;1.27;;;0.82;;
41643;SDS011;44236;48.098;11.582;2023-05-10T04:11:18;1.05;;;0.75;;
41643;SDS011;44236;48.098;11.582;2023-05-10T04:13:46;3.08;;;0.75;;
41643;SDS011;44236;48.098;11.582;2023-05-10T04:16:12;0.93;;;0.73;;
41643;SDS011;44236;48.098;11.582;2023-05-10T04:18:38;1.15;;;0.88;;
41643;SDS011;44236;48.098;11.582;2023-05-10T04:21:04;1.30;;;0.70;;
41643;SDS011;44236;48.098;11.582;2023-05-10T04:23:35;1.30;;;0.87;;
41643;SDS011;44236;48.098;11.582;2023-05-10T04:26:01;1.25;;;0.80;;
41643;SDS011;44236;48.098;11.582;2023-05-10T04:28:27;1.33;;;0.80;;
41643;SDS011;44236;48.098;11.582;2023-05-10T04:30:52;1.27;;;0.73;;
41643;SDS011;44236;48.098;11.582;2023-05-10T04:33:18;0.80;;;0.60;;
41643;SDS011;44236;48.098;11.582;2023-05-10T04:35:44;3.33;;;0.88;;
41643;SDS011;44236;48.098;11.582;2023-05-10T04:38:10;1.23;;;0.80;;
41643;SDS011;44236;48.098;11.582;2023-05-10T04:40:35;0.90;;;0.73;;
41643;SDS011;44236;48.098;11.582;2023-05-10T04:43:01;1.80;;;0.93;;
41643;SDS011;44236;48.098;11.582;2023-05-10T04:45:26;1.35;;;0.80;;
41643;SDS011;44236;48.098;11.582;2023-05-10T04:47:52;1.85;;;0.93;;
41643;SDS011;44236;48.098;11.582;2023-05-10T04:50:18;0.77;;;0.63;;
41643;SDS011;44236;48.098;11.582;2023-05-10T04:52:44;1.80;;;0.90;;
41643;SDS011;44236;48.098;11.582;2023-05-10T04:55:09;2.75;;;1.42;;
41643;SDS011;44236;48.098;11.582;2023-05-10T04:57:35;5.93;;;1.70;;
41643;SDS011;44236;48.098;11.582;2023-05-10T05:00:01;7.75;;;1.85;;
41643;SDS011;44236;48.098;11.582;2023-05-10T05:02:27;5.40;;;1.60;;
41643;SDS011;44236;48.098;11.582;2023-05-10T05:04:52;4.75;;;1.13;;
41643;SDS011;44236;48.098;11.582;2023-05-10T05:07:18;1.55;;;0.68;;
41643;SDS011;44236;48.098;11.582;2023-05-10T05:09:43;3.08;;;1.02;;
41643;SDS011;44236;48.098;11.582;2023-05-10T05:12:09;3.80;;;0.80;;
41643;SDS011;44236;48.098;11.582;2023-05-10T05:14:38;1.98;;;0.70;;
41643;SDS011;44236;48.098;11.582;2023-05-10T05:17:05;3.85;;;1.00;;
41643;SDS011;44236;48.098;11.582;2023-05-10T05:19:31;2.70;;;0.80;;
41643;SDS011;44236;48.098;11.582;2023-05-10T05:21:56;4.43;;;0.90;;
41643;SDS011;44236;48.098;11.582;2023-05-10T05:24:22;1.55;;;0.43;;
41643;SDS011;44236;48.098;11.582;2023-05-10T05:26:48;2.45;;;0.88;;
41643;SDS011;44236;48.098;11.582;2023-05-10T05:29:13;1.45;;;0.75;;
41643;SDS011;44236;48.098;11.582;2023-05-10T05:31:39;4.25;;;0.77;;
41643;SDS011;44236;48.098;11.582;2023-05-10T05:34:05;4.32;;;0.93;;
41643;SDS011;44236;48.098;11.582;2023-05-10T05:36:30;2.90;;;0.60;;
41643;SDS011;44236;48.098;11.582;2023-05-10T05:38:56;4.07;;;0.80;;
41643;SDS011;44236;48.098;11.582;2023-05-10T05:41:22;2.67;;;0.80;;
41643;SDS011;44236;48.098;11.582;2023-05-10T05:43:49;6.32;;;1.25;;
41643;SDS011;44236;48.098;11.582;2023-05-10T05:46:15;1.33;;;0.60;;
41643;SDS011;44236;48.098;11.582;2023-05-10T05:48:40;1.85;;;0.70;;
41643;SDS011;44236;48.098;11.582;2023-05-10T05:51:06;0.77;;;0.52;;
41643;SDS011;44236;48.098;11.582;2023-05-10T05:53:32;6.05;;;0.80;;
41643;SDS011;44236;48.098;11.582;2023-05-10T05:55:58;0.93;;;0.65;;
41643;SDS011;44236;48.098;11.582;2023-05-10T05:58:24;2.83;;;0.80;;
41643;SDS011;44236;48.098;11.582;2023-05-10T06:00:50;3.50;;;0.70;;
41643;SDS011;44236;48.098;11.582;2023-05-10T06:03:19;2.72;;;0.80;;
41643;SDS011;44236;48.098;11.582;2023-05-10T06:05:45;3.70;;;0.85;;
41643;SDS011;44236;48.098;11.582;2023-05-10T06:08:11;2.92;;;0.73;;
41643;SDS011;44236;48.098;11.582;2023-05-10T06:10:36;1.08;;;0.52;;
41643;SDS011;44236;48.098;11.582;2023-05-10T06:13:02;1.58;;;0.80;;
41643;SDS011;44236;48.098;11.582;2023-05-10T06:15:28;3.13;;;1.10;;
41643;SDS011;44236;48.098;11.582;2023-05-10T06:17:53;1.60;;;0.77;;
41643;SDS011;44236;48.098;11.582;2023-05-10T06:20:19;1.50;;;0.70;;
41643;SDS011;44236;48.098;11.582;2023-05-10T06:22:44;1.58;;;0.70;;
41643;SDS011;44236;48.098;11.582;2023-05-10T06:25:10;2.72;;;1.05;;
41643;SDS011;44236;48.098;11.582;2023-05-10T06:27:36;2.25;;;0.63;;
41643;SDS011;44236;48.098;11.582;2023-05-10T06:30:02;1.55;;;0.85;;
41643;SDS011;44236;48.098;11.582;2023-05-10T06:32:28;2.72;;;0.50;;
41643;SDS011;44236;48.098;11.582;2023-05-10T06:34:54;1.35;;;0.57;;
41643;SDS011;44236;48.098;11.582;2023-05-10T06:37:19;2.92;;;0.90;;
41643;SDS011;44236;48.098;11.582;2023-05-10T06:39:45;2.33;;;0.70;;
41643;SDS011;44236;48.098;11.582;2023-05-10T06:42:10;6.85;;;1.50;;
41643;SDS011;44236;48.098;11.582;2023-05-10T06:44:36;4.65;;;0.70;;
41643;SDS011;44236;48.098;11.582;2023-05-10T06:47:02;4.88;;;1.13;;
41643;SDS011;44236;48.098;11.582;2023-05-10T06:49:28;7.25;;;0.93;;
41643;SDS011;44236;48.098;11.582;2023-05-10T06:51:55;3.60;;;0.80;;
41643;SDS011;44236;48.098;11.582;2023-05-10T06:54:20;2.72;;;0.75;;
41643;SDS011;44236;48.098;11.582;2023-05-10T06:56:46;4.18;;;0.68;;
41643;SDS011;44236;48.098;11.582;2023-05-10T06:59:12;6.40;;;1.13;;
41643;SDS011;44236;48.098;11.582;2023-05-10T07:01:38;2.15;;;0.75;;
41643;SDS011;44236;48.098;11.582;2023-05-10T07:04:04;2.40;;;1.25;;
41643;SDS011;44236;48.098;11.582;2023-05-10T07:06:30;3.88;;;1.17;;
41643;SDS011;44236;48.098;11.582;2023-05-10T07:08:55;6.82;;;0.93;;
41643;SDS011;44236;48.098;11.582;2023-05-10T07:11:22;1.17;;;0.60;;
41643;SDS011;44236;48.098;11.582;2023-05-10T07:13:47;3.50;;;0.98;;
41643;SDS011;44236;48.098;11.582;2023-05-10T07:16:13;3.00;;;0.60;;
41643;SDS011;44236;48.098;11.582;2023-05-10T07:18:38;3.17;;;0.90;;
41643;SDS011;44236;48.098;11.582;2023-05-10T07:21:04;7.88;;;1.10;;
41643;SDS011;44236;48.098;11.582;2023-05-10T07:23:30;1.60;;;0.90;;
41643;SDS011;44236;48.098;11.582;2023-05-10T07:25:55;2.50;;;0.45;;
41643;SDS011;44236;48.098;11.582;2023-05-10T07:28:22;1.48;;;0.50;;
41643;SDS011;44236;48.098;11.582;2023-05-10T07:30:49;1.77;;;0.70;;
41643;SDS011;44236;48.098;11.582;2023-05-10T07:33:15;2.17;;;0.70;;
41643;SDS011;44236;48.098;11.582;2023-05-10T07:35:40;3.75;;;0.98;;
41643;SDS011;44236;48.098;11.582;2023-05-10T07:38:06;7.18;;;0.75;;
41643;SDS011;44236;48.098;11.582;2023-05-10T07:40:32;4.95;;;1.20;;
41643;SDS011;44236;48.098;11.582;2023-05-10T07:42:58;2.13;;;0.95;;
41643;SDS011;44236;48.098;11.582;2023-05-10T07:45:24;1.85;;;0.60;;
41643;SDS011;44236;48.098;11.582;2023-05-10T07:47:50;3.17;;;0.60;;
41643;SDS011;44236;48.098;11.582;2023-05-10T07:50:16;2.03;;;0.90;;
41643;SDS011;44236;48.098;11.582;2023-05-10T07:52:41;7.85;;;1.00;;
41643;SDS011;44236;48.098;11.582;2023-05-10T07:55:07;0.98;;;0.60;;
41643;SDS011;44236;48.098;11.582;2023-05-10T07:57:34;5.35;;;0.90;;
41643;SDS011;44236;48.098;11.582;2023-05-10T08:00:02;6.13;;;0.70;;
41643;SDS011;44236;48.098;11.582;2023-05-10T08:02:28;2.83;;;0.95;;
41643;SDS011;44236;48.098;11.582;2023-05-10T08:07:35;2.28;;;0.60;;
41643;SDS011;44236;48.098;11.582;2023-05-10T08:10:02;2.17;;;0.45;;
41643;SDS011;44236;48.098;11.582;2023-05-10T08:12:29;3.28;;;0.60;;
41643;SDS011;44236;48.098;11.582;2023-05-10T08:14:55;0.93;;;0.60;;
41643;SDS011;44236;48.098;11.582;2023-05-10T08:17:20;1.67;;;0.40;;
41643;SDS011;44236;48.098;11.582;2023-05-10T08:19:46;2.45;;;0.80;;
41643;SDS011;44236;48.098;11.582;2023-05-10T08:22:12;5.65;;;1.00;;
41643;SDS011;44236;48.098;11.582;2023-05-10T08:24:37;3.38;;;0.90;;
41643;SDS011;44236;48.098;11.582;2023-05-10T08:27:07;2.17;;;0.70;;
41643;SDS011;44236;48.098;11.582;2023-05-10T08:29:33;2.05;;;0.68;;
41643;SDS011;44236;48.098;11.582;2023-05-10T08:31:59;2.80;;;0.93;;
41643;SDS011;44236;48.098;11.582;2023-05-10T08:34:26;3.25;;;0.70;;
41643;SDS011;44236;48.098;11.582;2023-05-10T08:36:52;2.15;;;0.45;;
41643;SDS011;44236;48.098;11.582;2023-05-10T08:39:17;0.95;;;0.70;;
41643;SDS011;44236;48.098;11.582;2023-05-10T08:41:43;1.30;;;0.65;;
41643;SDS011;44236;48.098;11.582;2023-05-10T08:44:10;1.55;;;0.60;;
41643;SDS011;44236;48.098;11.582;2023-05-10T08:46:36;2.92;;;0.77;;
41643;SDS011;44236;48.098;11.582;2023-05-10T08:49:06;3.70;;;0.73;;
41643;SDS011;44236;48.098;11.582;2023-05-10T08:51:36;1.80;;;0.70;;
41643;SDS011;44236;48.098;11.582;2023-05-10T08:54:05;1.13;;;0.60;;
41643;SDS011;44236;48.098;11.582;2023-05-10T08:56:31;3.22;;;0.75;;
41643;SDS011;44236;48.098;11.582;2023-05-10T08:58:57;0.68;;;0.40;;
41643;SDS011;44236;48.098;11.582;2023-05-10T09:01:22;1.48;;;0.43;;
41643;SDS011;44236;48.098;11.582;2023-05-10T09:03:49;1.08;;;0.52;;
41643;SDS011;44236;48.098;11.582;2023-05-10T09:06:16;5.00;;;0.60;;
41643;SDS011;44236;48.098;11.582;2023-05-10T09:08:42;0.75;;;0.47;;
41643;SDS011;44236;48.098;11.582;2023-05-10T09:11:08;2.30;;;0.50;;
41643;SDS011;44236;48.098;11.582;2023-05-10T09:13:35;1.20;;;0.75;;
41643;SDS011;44236;48.098;11.582;2023-05-10T09:16:01;0.90;;;0.50;;
41643;SDS011;44236;48.098;11.582;2023-05-10T09:18:28;1.38;;;0.65;;
41643;SDS011;44236;48.098;11.582;2023-05-10T09:20:54;1.05;;;0.30;;
41643;SDS011;44236;48.098;11.582;2023-05-10T09:23:20;1.50;;;0.52;;
41643;SDS011;44236;48.098;11.582;2023-05-10T09:25:46;0.93;;;0.40;;
41643;SDS011;44236;48.098;11.582;2023-05-10T09:28:12;1.50;;;0.50;;
41643;SDS011;44236;48.098;11.582;2023-05-10T09:30:38;0.70;;;0.40;;
41643;SDS011;44236;48.098;11.582;2023-05-10T09:33:04;0.52;;;0.35;;
41643;SDS011;44236;48.098;11.582;2023-05-10T09:35:31;1.98;;;0.70;;
41643;SDS011;44236;48.098;11.582;2023-05-10T09:38:02;1.52;;;0.47;;
41643;SDS011;44236;48.098;11.582;2023-05-10T09:40:29;1.08;;;0.45;;
41643;SDS011;44236;48.098;11.582;2023-05-10T09:45:30;1.65;;;0.50;;
41643;SDS011;44236;48.098;11.582;2023-05-10T09:47:57;0.40;;;0.40;;
41643;SDS011;44236;48.098;11.582;2023-05-10T09:50:24;0.80;;;0.40;;
41643;SDS011;44236;48.098;11.582;2023-05-10T09:55:23;2.30;;;0.40;;
41643;SDS011;44236;48.098;11.582;2023-05-10T09:57:58;2.80;;;0.70;;
41643;SDS011;44236;48.098;11.582;2023-05-10T10:00:24;0.68;;;0.45;;
41643;SDS011;44236;48.098;11.582;2023-05-10T10:02:54;2.38;;;0.50;;
41643;SDS011;44236;48.098;11.582;2023-05-10T10:05:27;2.70;;;0.70;;
41643;SDS011;44236;48.098;11.582;2023-05-10T10:08:01;1.40;;;0.70;;
41643;SDS011;44236;48.098;11.582;2023-05-10T10:10:28;0.95;;;0.50;;
41643;SDS011;44236;48.098;11.582;2023-05-10T10:12:55;1.13;;;0.70;;
41643;SDS011;44236;48.098;11.582;2023-05-10T10:15:21;1.80;;;0.88;;
41643;SDS011;44236;48.098;11.582;2023-05-10T10:17:48;0.77;;;0.50;;
41643;SDS011;44236;48.098;11.582;2023-05-10T10:20:15;2.08;;;0.50;;
41643;SDS011;44236;48.098;11.582;2023-05-10T10:22:41;2.25;;;0.38;;
41643;SDS011;44236;48.098;11.582;2023-05-10T10:25:11;0.82;;;0.40;;
41643;SDS011;44236;48.098;11.582;2023-05-10T10:35:44;0.70;;;0.28;;
41643;SDS011;44236;48.098;11.582;2023-05-10T10:38:12;1.50;;;0.60;;
41643;SDS011;44236;48.098;11.582;2023-05-10T10:40:38;0.70;;;0.40;;
41643;SDS011;44236;48.098;11.582;2023-05-10T10:48:39;1.38;;;0.50;;
41643;SDS011;44236;48.098;11.582;2023-05-10T10:51:17;0.70;;;0.50;;
41643;SDS011;44236;48.098;11.582;2023-05-10T10:53:43;2.15;;;0.55;;
41643;SDS011;44236;48.098;11.582;2023-05-10T10:56:10;0.75;;;0.47;;
41643;SDS011;44236;48.098;11.582;2023-05-10T10:58:38;1.35;;;0.45;;
41643;SDS011;44236;48.098;11.582;2023-05-10T11:01:14;5.75;;;0.70;;
41643;SDS011;44236;48.098;11.582;2023-05-10T11:03:55;1.48;;;0.60;;
41643;SDS011;44236;48.098;11.582;2023-05-10T11:06:34;1.25;;;0.47;;
41643;SDS011;44236;48.098;11.582;2023-05-10T11:09:07;1.63;;;0.70;;
41643;SDS011;44236;48.098;11.582;2023-05-10T11:11:33;1.02;;;0.43;;
41643;SDS011;44236;48.098;11.582;2023-05-10T11:14:06;0.47;;;0.30;;
41643;SDS011;44236;48.098;11.582;2023-05-10T11:19:09;2.58;;;0.95;;
41643;SDS011;44236;48.098;11.582;2023-05-10T11:24:37;0.88;;;0.55;;
41643;SDS011;44236;48.098;11.582;2023-05-10T11:27:03;0.90;;;0.40;;
41643;SDS011;44236;48.098;11.582;2023-05-10T11:29:29;3.53;;;0.70;;
41643;SDS011;44236;48.098;11.582;2023-05-10T11:31:56;0.68;;;0.63;;
41643;SDS011;44236;48.098;11.582;2023-05-10T11:34:27;1.30;;;0.80;;
41643;SDS011;44236;48.098;11.582;2023-05-10T11:36:59;1.08;;;0.50;;
41643;SDS011;44236;48.098;11.582;2023-05-10T11:39:29;1.35;;;0.80;;
41643;SDS011;44236;48.098;11.582;2023-05-10T11:41:56;0.60;;;0.43;;
41643;SDS011;44236;48.098;11.582;2023-05-10T11:44:23;1.27;;;0.63;;
41643;SDS011;44236;48.098;11.582;2023-05-10T11:46:54;1.33;;;0.60;;
41643;SDS011;44236;48.098;11.582;2023-05-10T11:49:19;0.93;;;0.60;;
41643;SDS011;44236;48.098;11.582;2023-05-10T11:51:47;1.33;;;0.50;;
41643;SDS011;44236;48.098;11.582;2023-05-10T11:54:13;2.08;;;0.88;;
41643;SDS011;44236;48.098;11.582;2023-05-10T11:56:39;0.55;;;0.50;;
41643;SDS011;44236;48.098;11.582;2023-05-10T11:59:05;1.27;;;0.88;;
41643;SDS011;44236;48.098;11.582;2023-05-10T12:01:31;1.02;;;0.60;;
41643;SDS011;44236;48.098;11.582;2023-05-10T12:03:57;1.00;;;0.63;;
41643;SDS011;44236;48.098;11.582;2023-05-10T12:06:29;0.73;;;0.50;;
41643;SDS011;44236;48.098;11.582;2023-05-10T12:08:56;4.13;;;0.60;;
41643;SDS011;44236;48.098;11.582;2023-05-10T12:11:24;1.48;;;0.70;;
41643;SDS011;44236;48.098;11.582;2023-05-10T12:13:51;1.48;;;0.70;;
41643;SDS011;44236;48.098;11.582;2023-05-10T12:16:17;1.60;;;0.70;;
41643;SDS011;44236;48.098;11.582;2023-05-10T12:18:44;2.80;;;0.70;;
41643;SDS011;44236;48.098;11.582;2023-05-10T12:21:13;2.28;;;0.70;;
41643;SDS011;44236;48.098;11.582;2023-05-10T12:23:40;2.58;;;0.70;;
41643;SDS011;44236;48.098;11.582;2023-05-10T12:26:08;1.08;;;0.68;;
41643;SDS011;44236;48.098;11.582;2023-05-10T12:28:37;2.17;;;0.50;;
41643;SDS011;44236;48.098;11.582;2023-05-10T12:31:05;1.33;;;0.50;;
41643;SDS011;44236;48.098;11.582;2023-05-10T12:33:41;1.50;;;0.80;;
41643;SDS011;44236;48.098;11.582;2023-05-10T12:36:08;1.15;;;0.70;;
41643;SDS011;44236;48.098;11.582;2023-05-10T12:38:36;1.40;;;0.60;;
41643;SDS011;44236;48.098;11.582;2023-05-10T12:41:12;0.95;;;0.63;;
41643;SDS011;44236;48.098;11.582;2023-05-10T12:43:40;1.30;;;0.70;;
41643;SDS011;44236;48.098;11.582;2023-05-10T12:46:09;0.73;;;0.50;;
41643;SDS011;44236;48.098;11.582;2023-05-10T12:48:42;2.17;;;0.93;;
41643;SDS011;44236;48.098;11.582;2023-05-10T12:51:09;4.00;;;0.70;;
41643;SDS011;44236;48.098;11.582;2023-05-10T12:53:37;1.15;;;0.60;;
41643;SDS011;44236;48.098;11.582;2023-05-10T12:56:04;0.80;;;0.50;;
41643;SDS011;44236;48.098;11.582;2023-05-10T12:58:30;0.95;;;0.50;;
41643;SDS011;44236;48.098;11.582;2023-05-10T13:00:56;1.80;;;0.45;;
41643;SDS011;44236;48.098;11.582;2023-05-10T13:03:23;2.92;;;1.08;;
41643;SDS011;44236;48.098;11.582;2023-05-10T13:05:48;1.27;;;0.68;;
41643;SDS011;44236;48.098;11.582;2023-05-10T13:08:14;1.30;;;0.50;;
41643;SDS011;44236;48.098;11.582;2023-05-10T13:10:40;0.98;;;0.60;;
41643;SDS011;44236;48.098;11.582;2023-05-10T13:13:06;1.08;;;0.57;;
41643;SDS011;44236;48.098;11.582;2023-05-10T13:15:32;2.03;;;0.60;;
41643;SDS011;44236;48.098;11.582;2023-05-10T13:17:58;1.80;;;0.90;;
41643;SDS011;44236;48.098;11.582;2023-05-10T13:20:24;0.95;;;0.57;;
41643;SDS011;44236;48.098;11.582;2023-05-10T13:22:50;0.90;;;0.50;;
41643;SDS011;44236;48.098;11.582;2023-05-10T13:25:16;1.40;;;0.60;;
41643;SDS011;44236;48.098;11.582;2023-05-10T13:27:41;1.73;;;0.70;;
41643;SDS011;44236;48.098;11.582;2023-05-10T13:30:08;1.35;;;0.60;;
41643;SDS011;44236;48.098;11.582;2023-05-10T13:32:34;0.85;;;0.47;;
41643;SDS011;44236;48.098;11.582;2023-05-10T13:35:00;0.68;;;0.40;;
41643;SDS011;44236;48.098;11.582;2023-05-10T13:37:28;1.27;;;0.60;;
41643;SDS011;44236;48.098;11.582;2023-05-10T13:39:54;3.03;;;0.63;;
41643;SDS011;44236;48.098;11.582;2023-05-10T13:42:21;0.50;;;0.40;;
41643;SDS011;44236;48.098;11.582;2023-05-10T13:44:48;1.10;;;0.63;;
41643;SDS011;44236;48.098;11.582;2023-05-10T13:47:14;1.42;;;0.57;;
41643;SDS011;44236;48.098;11.582;2023-05-10T13:49:40;2.00;;;0.50;;
41643;SDS011;44236;48.098;11.582;2023-05-10T13:52:05;1.27;;;0.50;;
41643;SDS011;44236;48.098;11.582;2023-05-10T13:54:34;2.28;;;0.50;;
41643;SDS011;44236;48.098;11.582;2023-05-10T13:57:01;1.48;;;0.88;;
41643;SDS011;44236;48.098;11.582;2023-05-10T13:59:26;2.25;;;0.80;;
41643;SDS011;44236;48.098;11.582;2023-05-10T14:01:53;1.25;;;0.77;;
41643;SDS011;44236;48.098;11.582;2023-05-10T14:04:19;1.70;;;0.60;;
41643;SDS011;44236;48.098;11.582;2023-05-10T14:06:45;4.43;;;1.65;;
41643;SDS011;44236;48.098;11.582;2023-05-10T14:09:11;2.45;;;0.70;;
41643;SDS011;44236;48.098;11.582;2023-05-10T14:11:36;12.20;;;0.88;;
41643;SDS011;44236;48.098;11.582;2023-05-10T14:14:02;5.75;;;0.80;;
41643;SDS011;44236;48.098;11.582;2023-05-10T14:16:28;1.52;;;0.70;;
41643;SDS011;44236;48.098;11.582;2023-05-10T14:18:54;2.25;;;1.08;;
41643;SDS011;44236;48.098;11.582;2023-05-10T14:21:19;0.73;;;0.52;;
41643;SDS011;44236;48.098;11.582;2023-05-10T14:23:45;4.68;;;1.52;;
41643;SDS011;44236;48.098;11.582;2023-05-10T14:26:10;1.60;;;0.75;;
41643;SDS011;44236;48.098;11.582;2023-05-10T14:28:37;1.38;;;0.70;;
41643;SDS011;44236;48.098;11.582;2023-05-10T14:31:02;1.48;;;0.70;;
41643;SDS011;44236;48.098;11.582;2023-05-10T14:33:28;2.25;;;1.10;;
41643;SDS011;44236;48.098;11.582;2023-05-10T14:35:53;4.25;;;0.93;;
41643;SDS011;44236;48.098;11.582;2023-05-10T14:38:21;2.72;;;1.08;;
41643;SDS011;44236;48.098;11.582;2023-05-10T14:40:47;2.38;;;1.00;;
41643;SDS011;44236;48.098;11.582;2023-05-10T14:43:12;3.03;;;0.80;;
41643;SDS011;44236;48.098;11.582;2023-05-10T14:45:38;1.83;;;0.60;;
41643;SDS011;44236;48.098;11.582;2023-05-10T14:48:04;6.25;;;1.20;;
41643;SDS011;44236;48.098;11.582;2023-05-10T14:50:30;5.85;;;1.80;;
41643;SDS011;44236;48.098;11.582;2023-05-10T14:52:56;10.35;;;2.30;;
41643;SDS011;44236;48.098;11.582;2023-05-10T14:55:22;11.10;;;2.25;;
41643;SDS011;44236;48.098;11.582;2023-05-10T14:57:47;10.60;;;2.40;;
41643;SDS011;44236;48.098;11.582;2023-05-10T15:00:15;13.68;;;3.72;;
41643;SDS011;44236;48.098;11.582;2023-05-10T15:02:41;17.42;;;4.03;;
41643;SDS011;44236;48.098;11.582;2023-05-10T15:05:06;16.90;;;4.00;;
41643;SDS011;44236;48.098;11.582;2023-05-10T15:07:32;14.88;;;4.03;;
41643;SDS011;44236;48.098;11.582;2023-05-10T15:09:58;17.92;;;4.35;;
41643;SDS011;44236;48.098;11.582;2023-05-10T15:12:24;20.52;;;3.53;;
41643;SDS011;44236;48.098;11.582;2023-05-10T15:14:49;19.85;;;3.97;;
41643;SDS011;44236;48.098;11.582;2023-05-10T15:17:15;15.57;;;3.78;;
41643;SDS011;44236;48.098;11.582;2023-05-10T15:19:41;10.30;;;3.10;;
41643;SDS011;44236;48.098;11.582;2023-05-10T15:22:07;20.67;;;3.50;;